createdAt,value
2023-04-14T00:00:36.845Z,19.17
2023-04-14T00:03:03.951Z,22.15
2023-04-14T00:05:31.501Z,16.35
2023-04-14T00:07:58.158Z,16.70
2023-04-14T00:10:25.051Z,16.92
2023-04-14T00:12:52.023Z,20.63
2023-04-14T00:15:18.856Z,15.98
2023-04-14T00:17:45.491Z,18.08
2023-04-14T00:20:12.139Z,17.92
2023-04-14T00:22:38.687Z,18.92
2023-04-14T00:25:05.653Z,19.98
2023-04-14T00:27:32.151Z,21.42
2023-04-14T00:29:58.662Z,22.17
2023-04-14T00:32:25.286Z,21.48
2023-04-14T00:34:51.944Z,17.02
2023-04-14T00:37:18.462Z,14.73
2023-04-14T00:39:44.956Z,16.10
2023-04-14T00:42:11.654Z,13.60
2023-04-14T00:44:38.128Z,13.25
2023-04-14T00:47:05.670Z,15.60
2023-04-14T00:49:32.413Z,11.77
2023-04-14T00:51:59.415Z,18.75
2023-04-14T00:54:26.518Z,15.60
2023-04-14T00:56:54.038Z,13.82
2023-04-14T00:59:20.924Z,13.82
2023-04-14T01:01:47.466Z,12.30
2023-04-14T01:04:15.959Z,19.50
2023-04-14T01:06:42.534Z,15.60
2023-04-14T01:09:09.590Z,19.80
2023-04-14T01:11:45.283Z,18.13
2023-04-14T01:14:50.593Z,10.25
2023-04-14T01:17:22.747Z,10.85
2023-04-14T01:20:20.606Z,13.48
2023-04-14T01:22:55.319Z,13.88
2023-04-14T01:26:10.748Z,16.02
2023-04-14T01:29:34.377Z,14.38
2023-04-14T01:32:05.652Z,14.25
2023-04-14T01:34:50.724Z,14.30
2023-04-14T01:37:21.450Z,15.95
2023-04-14T01:39:54.318Z,15.20
2023-04-14T01:42:25.288Z,14.68
2023-04-14T01:44:56.913Z,17.77
2023-04-14T01:47:26.257Z,20.38
2023-04-14T01:49:53.847Z,18.95
2023-04-14T01:52:21.145Z,15.75
2023-04-14T01:54:51.716Z,15.00
2023-04-14T01:57:22.646Z,16.35
2023-04-14T01:59:51.967Z,17.48
2023-04-14T02:02:21.216Z,16.27
2023-04-14T02:04:49.628Z,16.15
2023-04-14T02:07:17.593Z,19.15
2023-04-14T02:09:45.607Z,17.75
2023-04-14T02:12:12.694Z,13.57
2023-04-14T02:14:41.811Z,14.85
2023-04-14T02:17:11.757Z,13.93
2023-04-14T02:19:39.306Z,15.63
2023-04-14T02:22:05.996Z,20.10
2023-04-14T02:24:32.648Z,18.52
2023-04-14T02:27:07.140Z,23.38
2023-04-14T02:29:36.097Z,18.42
2023-04-14T02:32:11.497Z,14.95
2023-04-14T02:34:55.617Z,16.92
2023-04-14T02:37:27.270Z,16.70
2023-04-14T02:39:59.141Z,18.88
2023-04-14T02:42:27.454Z,21.92
2023-04-14T02:45:22.529Z,17.40
2023-04-14T02:47:54.457Z,21.25
2023-04-14T02:50:22.532Z,19.27
2023-04-14T02:52:51.705Z,20.35
2023-04-14T02:55:23.067Z,19.38
2023-04-14T02:57:51.655Z,15.98
2023-04-14T03:00:19.146Z,14.68
2023-04-14T03:02:47.265Z,15.73
2023-04-14T03:05:14.460Z,20.23
2023-04-14T03:07:43.982Z,20.13
2023-04-14T03:10:14.448Z,22.15
2023-04-14T03:12:42.197Z,18.60
2023-04-14T03:15:10.255Z,20.05
2023-04-14T03:17:38.097Z,20.23
2023-04-14T03:20:05.302Z,25.13
2023-04-14T03:22:36.135Z,20.52
2023-04-14T03:25:02.760Z,17.17
2023-04-14T03:27:30.388Z,19.25
2023-04-14T03:30:03.706Z,16.30
2023-04-14T03:32:35.793Z,19.38
2023-04-14T03:35:02.974Z,19.63
2023-04-14T03:37:32.081Z,27.70
2023-04-14T03:40:02.164Z,20.77
2023-04-14T03:42:30.026Z,18.58
2023-04-14T03:44:58.566Z,22.38
2023-04-14T03:47:26.992Z,17.77
2023-04-14T03:49:57.596Z,22.65
2023-04-14T03:52:26.809Z,20.80
2023-04-14T03:54:58.928Z,17.30
2023-04-14T03:57:29.220Z,21.88
2023-04-14T03:59:56.963Z,23.77
2023-04-14T04:02:25.737Z,21.52
2023-04-14T04:04:54.403Z,26.83
2023-04-14T04:07:21.855Z,24.45
2023-04-14T04:09:50.679Z,25.40
2023-04-14T04:12:20.360Z,24.40
2023-04-14T04:14:47.142Z,34.03
2023-04-14T04:17:16.239Z,26.75
2023-04-14T04:19:44.683Z,26.70
2023-04-14T04:22:14.384Z,22.15
2023-04-14T04:24:42.468Z,28.17
2023-04-14T04:27:20.289Z,25.10
2023-04-14T04:29:53.752Z,25.80
2023-04-14T04:32:20.976Z,25.42
2023-04-14T04:34:50.900Z,25.05
2023-04-14T04:37:19.354Z,29.52
2023-04-14T04:39:45.904Z,27.50
2023-04-14T04:42:12.407Z,26.92
2023-04-14T04:44:38.935Z,26.92
2023-04-14T04:47:05.800Z,21.00
2023-04-14T04:49:32.354Z,19.67
2023-04-14T04:51:59.703Z,20.58
2023-04-14T04:54:27.128Z,21.27
2023-04-14T04:56:54.006Z,23.40
2023-04-14T04:59:20.445Z,27.77
2023-04-14T05:01:47.060Z,21.15
2023-04-14T05:04:13.595Z,22.27
2023-04-14T05:06:40.219Z,24.50
2023-04-14T05:09:07.141Z,20.48
2023-04-14T05:11:33.959Z,26.55
2023-04-14T05:14:01.192Z,25.42
2023-04-14T05:16:28.411Z,22.13
2023-04-14T05:18:54.918Z,23.27
2023-04-14T05:21:21.612Z,21.88
2023-04-14T05:23:48.270Z,22.92
2023-04-14T05:26:38.812Z,19.60
2023-04-14T05:29:02.043Z,16.38
2023-04-14T05:31:28.650Z,16.65
2023-04-14T05:33:55.134Z,25.75
2023-04-14T05:36:21.621Z,22.05
2023-04-14T05:38:48.098Z,19.40
2023-04-14T05:41:14.584Z,22.27
2023-04-14T05:43:41.140Z,24.77
2023-04-14T05:46:07.754Z,20.27
2023-04-14T05:48:36.306Z,19.17
2023-04-14T05:51:02.741Z,19.67
2023-04-14T05:53:29.180Z,18.67
2023-04-14T05:55:57.151Z,24.30
2023-04-14T05:58:26.234Z,19.88
2023-04-14T06:00:52.869Z,16.80
2023-04-14T06:03:19.708Z,24.98
2023-04-14T06:05:48.173Z,19.98
2023-04-14T06:08:14.707Z,18.50
2023-04-14T06:10:41.370Z,22.08
2023-04-14T06:13:08.693Z,17.20
2023-04-14T06:15:35.239Z,16.95
2023-04-14T06:18:01.813Z,20.67
2023-04-14T06:20:32.496Z,23.02
2023-04-14T06:23:00.798Z,17.17
2023-04-14T06:25:27.260Z,20.23
2023-04-14T06:27:53.700Z,22.02
2023-04-14T06:30:20.224Z,16.25
2023-04-14T06:32:48.568Z,19.30
2023-04-14T06:35:29.643Z,27.23
2023-04-14T06:37:58.625Z,21.90
2023-04-14T06:40:25.285Z,24.45
2023-04-14T06:42:51.703Z,19.67
2023-04-14T06:45:18.261Z,24.58
2023-04-14T06:47:44.839Z,18.25
2023-04-14T06:50:12.224Z,20.80
2023-04-14T06:52:38.668Z,19.38
2023-04-14T06:55:05.600Z,20.48
2023-04-14T06:57:32.092Z,18.17
2023-04-14T06:59:58.604Z,18.02
2023-04-14T07:02:25.266Z,21.50
2023-04-14T07:04:52.128Z,21.55
2023-04-14T07:07:18.632Z,17.23
2023-04-14T07:09:45.318Z,18.33
2023-04-14T07:12:16.879Z,21.17
2023-04-14T07:14:43.583Z,17.85
2023-04-14T07:17:10.040Z,8.63
2023-04-14T07:19:36.537Z,16.23
2023-04-14T07:22:03.045Z,7.40
2023-04-14T07:24:29.525Z,19.08
2023-04-14T07:26:56.140Z,18.25
2023-04-14T07:29:22.665Z,23.02
2023-04-14T07:31:49.219Z,19.77
2023-04-14T07:34:15.693Z,20.30
2023-04-14T07:36:42.523Z,23.10
2023-04-14T07:39:09.062Z,21.33
2023-04-14T07:41:35.553Z,15.60
2023-04-14T07:44:02.341Z,24.10
2023-04-14T07:46:29.092Z,30.73
2023-04-14T07:48:55.629Z,26.90
2023-04-14T07:51:24.613Z,10.45
2023-04-14T07:53:53.001Z,29.88
2023-04-14T07:56:19.535Z,25.75
2023-04-14T07:58:46.505Z,9.10
2023-04-14T08:01:14.106Z,20.02
2023-04-14T08:03:43.567Z,23.58
2023-04-14T08:06:11.759Z,16.50
2023-04-14T08:08:39.827Z,16.38
2023-04-14T08:11:06.286Z,18.88
2023-04-14T08:13:32.771Z,20.25
2023-04-14T08:15:59.245Z,19.60
2023-04-14T08:18:25.892Z,21.17
2023-04-14T08:20:52.401Z,20.33
2023-04-14T08:23:18.909Z,18.15
2023-04-14T08:25:45.649Z,14.13
2023-04-14T08:28:12.726Z,12.75
2023-04-14T08:30:39.226Z,16.00
2023-04-14T08:33:05.787Z,14.15
2023-04-14T08:35:39.537Z,9.25
2023-04-14T08:38:08.200Z,9.25
2023-04-14T08:40:41.107Z,10.00
2023-04-14T08:43:07.829Z,12.27
2023-04-14T08:45:35.546Z,14.07
2023-04-14T08:48:03.529Z,13.45
2023-04-14T08:50:37.604Z,7.43
2023-04-14T08:53:08.567Z,8.48
2023-04-14T08:55:36.832Z,12.50
2023-04-14T08:58:04.727Z,14.43
2023-04-14T09:00:31.347Z,8.15
2023-04-14T09:02:58.799Z,11.50
2023-04-14T09:05:26.094Z,14.75
2023-04-14T09:07:53.324Z,14.82
2023-04-14T09:10:22.196Z,14.20
2023-04-14T09:12:49.289Z,13.70
2023-04-14T09:15:16.938Z,13.82
2023-04-14T09:17:43.947Z,15.98
2023-04-14T09:20:36.435Z,17.08
2023-04-14T09:22:58.568Z,14.30
2023-04-14T09:25:25.153Z,12.65
2023-04-14T09:27:52.112Z,10.63
2023-04-14T09:30:19.085Z,10.45
2023-04-14T09:32:45.614Z,4.30
2023-04-14T09:35:16.202Z,7.43
2023-04-14T09:37:44.642Z,6.15
2023-04-14T09:40:26.465Z,9.90
2023-04-14T09:42:54.136Z,6.10
2023-04-14T09:45:20.645Z,13.18
2023-04-14T09:47:47.187Z,5.93
2023-04-14T09:50:13.691Z,8.27
2023-04-14T09:52:48.425Z,19.05
2023-04-14T09:55:16.811Z,13.65
2023-04-14T09:57:44.663Z,10.48
2023-04-14T10:00:21.500Z,7.03
2023-04-14T10:02:51.044Z,13.32
2023-04-14T10:05:21.423Z,9.93
2023-04-14T10:07:47.855Z,7.20
2023-04-14T10:10:14.366Z,9.38
2023-04-14T10:12:45.672Z,6.13
2023-04-14T10:15:17.218Z,6.95
2023-04-14T10:17:43.717Z,10.30
2023-04-14T10:20:10.685Z,7.90
2023-04-14T10:22:39.094Z,12.63
2023-04-14T10:25:09.129Z,7.07
2023-04-14T10:27:35.920Z,11.13
2023-04-14T10:30:02.561Z,13.73
2023-04-14T10:32:36.686Z,11.70
2023-04-14T10:35:05.316Z,12.05
2023-04-14T10:37:35.149Z,11.02
2023-04-14T10:40:09.807Z,10.18
2023-04-14T10:42:56.080Z,13.75
2023-04-14T10:45:22.796Z,8.77
2023-04-14T10:47:50.200Z,12.45
2023-04-14T10:50:18.563Z,12.38
2023-04-14T10:52:54.250Z,6.47
2023-04-14T10:55:28.339Z,12.60
2023-04-14T10:58:06.326Z,10.93
2023-04-14T11:00:37.909Z,12.10
2023-04-14T11:03:08.553Z,14.57
2023-04-14T11:05:35.611Z,13.52
2023-04-14T11:08:16.151Z,13.05
2023-04-14T11:11:01.975Z,13.77
2023-04-14T11:13:29.910Z,8.80
2023-04-14T11:16:04.000Z,12.32
2023-04-14T11:18:30.830Z,8.93
2023-04-14T11:21:06.663Z,8.73
2023-04-14T11:23:34.794Z,19.75
2023-04-14T11:26:01.612Z,10.10
2023-04-14T11:28:38.608Z,9.75
2023-04-14T11:31:06.834Z,15.48
2023-04-14T11:33:34.379Z,9.45
2023-04-14T11:36:02.427Z,8.00
2023-04-14T11:38:30.363Z,7.13
2023-04-14T11:40:57.397Z,3.47
2023-04-14T11:43:24.828Z,9.05
2023-04-14T11:45:52.162Z,9.80
2023-04-14T11:48:20.343Z,8.48
2023-04-14T11:50:48.151Z,8.40
2023-04-14T11:53:19.007Z,13.15
2023-04-14T11:55:48.029Z,5.43
2023-04-14T11:58:20.153Z,8.70
2023-04-14T12:00:48.492Z,10.90
2023-04-14T12:03:15.416Z,8.70
2023-04-14T12:05:42.616Z,9.50
2023-04-14T12:10:57.704Z,13.38
2023-04-14T12:13:24.837Z,10.05
2023-04-14T12:15:52.761Z,3.47
2023-04-14T12:20:48.343Z,5.30
2023-04-14T12:23:15.997Z,10.55
2023-04-14T12:25:42.676Z,13.73
2023-04-14T12:28:09.221Z,8.38
2023-04-14T12:30:37.310Z,9.98
2023-04-14T12:33:13.323Z,11.75
2023-04-14T12:35:43.093Z,7.80
2023-04-14T12:38:14.382Z,12.73
2023-04-14T12:40:43.726Z,9.63
2023-04-14T12:43:10.518Z,14.63
2023-04-14T12:45:44.513Z,10.13
2023-04-14T12:48:12.315Z,11.57
2023-04-14T12:50:39.471Z,11.30
2023-04-14T12:53:25.241Z,9.25
2023-04-14T12:58:40.471Z,9.48
2023-04-14T13:01:09.378Z,11.00
2023-04-14T13:03:39.092Z,9.18
2023-04-14T13:06:05.914Z,10.45
2023-04-14T13:08:32.471Z,7.35
2023-04-14T13:10:58.926Z,11.10
2023-04-14T13:13:25.368Z,11.73
2023-04-14T13:16:14.603Z,10.57
2023-04-14T13:18:38.302Z,10.98
2023-04-14T13:21:04.941Z,14.70
2023-04-14T13:23:31.777Z,12.85
2023-04-14T13:25:59.052Z,9.35
2023-04-14T13:28:26.612Z,14.65
2023-04-14T13:30:54.757Z,8.50
2023-04-14T13:33:22.078Z,8.25
2023-04-14T13:35:48.664Z,6.55
2023-04-14T13:38:15.435Z,11.68
2023-04-14T13:40:41.987Z,8.65
2023-04-14T13:43:08.803Z,11.23
2023-04-14T13:45:35.757Z,8.90
2023-04-14T13:48:02.585Z,10.73
2023-04-14T13:50:29.739Z,7.88
2023-04-14T13:52:56.290Z,11.10
2023-04-14T13:55:22.758Z,12.43
2023-04-14T13:57:49.553Z,13.68
2023-04-14T14:00:16.332Z,6.93
2023-04-14T14:02:42.856Z,9.70
2023-04-14T14:05:10.898Z,6.95
2023-04-14T14:07:38.235Z,9.13
2023-04-14T14:10:05.727Z,9.02
2023-04-14T14:12:34.794Z,12.85
2023-04-14T14:15:01.753Z,8.10
2023-04-14T14:17:29.053Z,10.82
2023-04-14T14:19:55.774Z,7.22
2023-04-14T14:22:22.313Z,9.40
2023-04-14T14:24:48.821Z,8.95
2023-04-14T14:27:18.360Z,9.98
2023-04-14T14:29:45.121Z,10.48
2023-04-14T14:32:11.619Z,5.82
2023-04-14T14:34:39.080Z,13.73
2023-04-14T14:37:05.655Z,10.18
2023-04-14T14:39:32.672Z,9.50
2023-04-14T14:41:59.420Z,3.92
2023-04-14T14:44:26.005Z,6.13
2023-04-14T14:46:53.147Z,9.20
2023-04-14T14:49:20.961Z,9.25
2023-04-14T14:51:48.360Z,8.88
2023-04-14T14:54:14.986Z,8.18
2023-04-14T14:56:41.991Z,9.27
2023-04-14T14:59:08.564Z,10.43
2023-04-14T15:01:35.673Z,6.65
2023-04-14T15:04:03.015Z,7.88
2023-04-14T15:06:29.864Z,10.88
2023-04-14T15:08:56.808Z,15.10
2023-04-14T15:11:24.346Z,9.55
2023-04-14T15:13:51.094Z,8.57
2023-04-14T15:16:17.571Z,7.93
2023-04-14T15:18:44.776Z,11.77
2023-04-14T15:21:11.290Z,10.43
2023-04-14T15:23:39.621Z,12.85
2023-04-14T15:26:06.414Z,12.52
2023-04-14T15:28:32.892Z,7.80
2023-04-14T15:30:59.392Z,10.45
2023-04-14T15:33:26.373Z,14.38
2023-04-14T15:35:52.805Z,12.90
2023-04-14T15:38:19.828Z,10.25
2023-04-14T15:40:46.602Z,9.15
2023-04-14T15:43:13.140Z,10.65
2023-04-14T15:45:40.064Z,10.85
2023-04-14T15:48:06.701Z,10.18
2023-04-14T15:50:33.277Z,11.93
2023-04-14T15:52:59.730Z,9.68
2023-04-14T15:55:27.488Z,11.18
2023-04-14T15:57:54.070Z,10.65
2023-04-14T16:00:22.468Z,7.85
2023-04-14T16:02:49.066Z,12.68
2023-04-14T16:05:16.784Z,12.48
2023-04-14T16:07:45.525Z,6.70
2023-04-14T16:10:12.194Z,12.90
2023-04-14T16:12:39.249Z,16.42
2023-04-14T16:15:09.173Z,11.80
2023-04-14T16:17:35.757Z,8.40
2023-04-14T16:20:02.879Z,10.40
2023-04-14T16:22:31.114Z,11.55
2023-04-14T16:24:57.596Z,10.23
2023-04-14T16:27:24.181Z,7.55
2023-04-14T16:29:53.285Z,8.27
2023-04-14T16:32:19.749Z,10.02
2023-04-14T16:34:46.649Z,12.57
2023-04-14T16:37:13.185Z,5.00
2023-04-14T16:39:41.136Z,9.65
2023-04-14T16:42:09.332Z,12.75
2023-04-14T16:44:37.569Z,14.85
2023-04-14T16:47:04.034Z,11.25
2023-04-14T16:49:30.639Z,11.27
2023-04-14T16:51:57.529Z,12.07
2023-04-14T16:54:24.048Z,9.40
2023-04-14T16:56:51.904Z,12.93
2023-04-14T16:59:18.456Z,9.82
2023-04-14T17:01:45.242Z,9.38
2023-04-14T17:04:12.253Z,9.77
2023-04-14T17:06:38.953Z,8.50
2023-04-14T17:09:05.664Z,12.43
2023-04-14T17:11:32.410Z,12.85
2023-04-14T17:13:58.879Z,13.15
2023-04-14T17:16:25.363Z,12.05
2023-04-14T17:18:51.924Z,10.20
2023-04-14T17:21:18.404Z,14.20
2023-04-14T17:23:44.905Z,12.05
2023-04-14T17:26:11.480Z,10.95
2023-04-14T17:28:38.949Z,15.52
2023-04-14T17:31:14.157Z,14.07
2023-04-14T17:33:44.789Z,9.43
2023-04-14T17:36:15.512Z,7.97
2023-04-14T17:38:43.155Z,7.68
2023-04-14T17:41:10.985Z,9.73
2023-04-14T17:43:39.478Z,10.15
2023-04-14T17:46:06.379Z,9.85
2023-04-14T17:48:35.837Z,11.80
2023-04-14T17:51:03.120Z,15.10
2023-04-14T17:53:30.927Z,11.30
2023-04-14T17:55:57.743Z,12.20
2023-04-14T17:58:25.241Z,14.93
2023-04-14T18:00:52.073Z,12.93
2023-04-14T18:03:18.603Z,12.38
2023-04-14T18:05:45.363Z,13.88
2023-04-14T18:08:12.071Z,16.17
2023-04-14T18:10:39.190Z,16.40
2023-04-14T18:13:05.763Z,18.88
2023-04-14T18:15:32.244Z,15.57
2023-04-14T18:17:58.780Z,14.02
2023-04-14T18:20:26.329Z,9.57
2023-04-14T18:22:57.523Z,14.85
2023-04-14T18:25:24.040Z,14.90
2023-04-14T18:30:22.990Z,13.05
2023-04-14T18:32:55.297Z,12.77
2023-04-14T18:35:22.063Z,11.90
2023-04-14T18:37:48.745Z,12.25
2023-04-14T18:40:15.855Z,11.40
2023-04-14T18:42:42.283Z,13.63
2023-04-14T18:45:09.674Z,12.48
2023-04-14T18:47:36.262Z,15.80
2023-04-14T18:50:03.836Z,8.45
2023-04-14T18:52:30.494Z,12.65
2023-04-14T18:54:57.337Z,8.73
2023-04-14T18:57:23.897Z,17.27
2023-04-14T18:59:50.429Z,10.68
2023-04-14T19:02:16.927Z,19.92
2023-04-14T19:04:43.681Z,15.05
2023-04-14T19:07:10.639Z,18.70
2023-04-14T19:09:37.637Z,22.65
2023-04-14T19:12:04.248Z,13.27
2023-04-14T19:14:30.747Z,15.93
2023-04-14T19:16:57.902Z,14.65
2023-04-14T19:19:25.026Z,16.77
2023-04-14T19:21:51.636Z,13.52
2023-04-14T19:24:18.642Z,10.82
2023-04-14T19:26:45.151Z,13.68
2023-04-14T19:29:11.764Z,14.68
2023-04-14T19:31:38.543Z,17.20
2023-04-14T19:34:05.005Z,14.68
2023-04-14T19:36:32.325Z,11.48
2023-04-14T19:38:58.967Z,16.48
2023-04-14T19:41:25.981Z,13.65
2023-04-14T19:43:52.445Z,12.23
2023-04-14T19:46:18.987Z,15.68
2023-04-14T19:48:45.706Z,15.18
2023-04-14T19:51:12.129Z,15.63
2023-04-14T19:53:38.646Z,14.55
2023-04-14T19:56:05.700Z,12.98
2023-04-14T19:58:32.812Z,12.57
2023-04-14T20:00:59.414Z,12.60
2023-04-14T20:03:26.784Z,11.70
2023-04-14T20:05:55.863Z,15.77
2023-04-14T20:08:23.538Z,15.43
2023-04-14T20:10:52.630Z,13.90
2023-04-14T20:13:24.383Z,12.00
2023-04-14T20:15:53.835Z,14.38
2023-04-14T20:18:20.978Z,10.20
2023-04-14T20:20:48.589Z,12.27
2023-04-14T20:23:15.814Z,11.95
2023-04-14T20:25:43.955Z,15.15
2023-04-14T20:28:10.491Z,18.75
2023-04-14T20:30:37.695Z,16.08
2023-04-14T20:33:04.571Z,17.83
2023-04-14T20:35:34.712Z,13.02
2023-04-14T20:38:01.233Z,14.18
2023-04-14T20:40:27.719Z,16.38
2023-04-14T20:42:54.434Z,15.50
2023-04-14T20:45:22.078Z,20.38
2023-04-14T20:47:49.200Z,20.13
2023-04-14T20:50:16.982Z,16.58
2023-04-14T20:52:44.663Z,15.15
2023-04-14T20:55:13.298Z,17.98
2023-04-14T20:57:40.687Z,17.40
2023-04-14T21:00:10.116Z,21.88
2023-04-14T21:02:40.029Z,19.00
2023-04-14T21:05:07.012Z,15.50
2023-04-14T21:07:35.512Z,18.45
2023-04-14T21:10:04.059Z,18.05
2023-04-14T21:12:33.778Z,19.55
2023-04-14T21:15:41.649Z,18.38
2023-04-14T21:17:51.263Z,20.70
2023-04-14T21:20:17.717Z,23.15
2023-04-14T21:22:44.147Z,18.17
2023-04-14T21:25:10.594Z,20.33
2023-04-14T21:27:37.313Z,17.38
2023-04-14T21:30:04.619Z,17.30
2023-04-14T21:32:31.115Z,14.68
2023-04-14T21:34:57.804Z,16.20
2023-04-14T21:37:25.020Z,18.73
2023-04-14T21:39:51.466Z,17.52
2023-04-14T21:42:17.936Z,15.00
2023-04-14T21:44:44.490Z,16.33
2023-04-14T21:47:10.990Z,18.27
2023-04-14T21:49:37.516Z,18.05
2023-04-14T21:52:04.013Z,16.42
2023-04-14T21:54:31.818Z,15.05
2023-04-14T21:56:59.281Z,15.65
2023-04-14T21:59:25.872Z,16.08
2023-04-14T22:01:52.343Z,18.70
2023-04-14T22:04:33.122Z,22.83
2023-04-14T22:07:02.776Z,18.02
2023-04-14T22:09:29.244Z,16.45
2023-04-14T22:11:56.516Z,15.73
2023-04-14T22:14:23.534Z,18.65
2023-04-14T22:16:50.112Z,22.20
2023-04-14T22:19:16.805Z,19.95
2023-04-14T22:21:43.626Z,31.52
2023-04-14T22:24:10.407Z,26.38
2023-04-14T22:26:36.849Z,27.85
2023-04-14T22:29:04.162Z,26.83
2023-04-14T22:31:31.088Z,25.60
2023-04-14T22:33:57.598Z,21.13
2023-04-14T22:36:24.187Z,19.00
2023-04-14T22:38:50.702Z,18.13
2023-04-14T22:41:18.335Z,18.38
2023-04-14T22:43:44.851Z,14.77
2023-04-14T22:46:11.713Z,19.15
2023-04-14T22:48:38.200Z,17.02
2023-04-14T22:51:04.633Z,16.55
2023-04-14T22:53:31.345Z,18.25
2023-04-14T22:55:58.275Z,16.88
2023-04-14T22:58:25.208Z,17.83
2023-04-14T23:00:51.866Z,17.58
2023-04-14T23:03:18.443Z,17.58
2023-04-14T23:05:45.083Z,15.85
2023-04-14T23:08:11.562Z,18.48
2023-04-14T23:10:37.984Z,18.83
2023-04-14T23:13:04.447Z,18.17
2023-04-14T23:15:31.112Z,22.42
2023-04-14T23:17:57.579Z,20.35
2023-04-14T23:20:24.791Z,20.02
2023-04-14T23:22:51.462Z,18.40
2023-04-14T23:25:18.297Z,17.13
2023-04-14T23:27:44.765Z,18.15
2023-04-14T23:30:11.444Z,16.27
2023-04-14T23:32:37.931Z,19.33
2023-04-14T23:35:05.495Z,20.35
2023-04-14T23:37:31.946Z,19.58
2023-04-14T23:39:58.391Z,20.65
2023-04-14T23:42:24.835Z,19.17
2023-04-14T23:44:51.463Z,18.55
2023-04-14T23:47:18.155Z,18.35
2023-04-14T23:49:44.613Z,21.38
2023-04-14T23:52:11.200Z,19.25
2023-04-14T23:54:37.659Z,18.02
2023-04-14T23:57:04.424Z,20.73
2023-04-14T23:59:31.214Z,18.33
